createdAt,value
2019-05-11T00:02:03.721Z,7.45
2019-05-11T00:04:33.148Z,9.80
2019-05-11T00:07:02.554Z,15.05
2019-05-11T00:09:32.559Z,10.35
2019-05-11T00:12:01.990Z,13.68
2019-05-11T00:14:31.408Z,8.85
2019-05-11T00:17:00.921Z,9.98
2019-05-11T00:19:30.318Z,8.63
2019-05-11T00:21:59.762Z,10.58
2019-05-11T00:24:29.900Z,10.25
2019-05-11T00:26:59.386Z,10.32
2019-05-11T00:29:28.809Z,12.88
2019-05-11T00:31:58.291Z,12.80
2019-05-11T00:34:27.736Z,12.03
2019-05-11T00:36:57.175Z,13.48
2019-05-11T00:39:26.562Z,8.88
2019-05-11T00:41:55.978Z,10.50
2019-05-11T00:44:25.390Z,10.88
2019-05-11T00:46:54.823Z,9.73
2019-05-11T00:49:24.250Z,8.68
2019-05-11T00:51:54.062Z,9.00
2019-05-11T00:54:23.488Z,9.23
2019-05-11T00:56:52.922Z,12.28
2019-05-11T00:59:22.325Z,17.65
2019-05-11T01:01:51.747Z,13.75
2019-05-11T01:04:21.173Z,14.50
2019-05-11T01:06:50.612Z,12.95
2019-05-11T01:09:20.042Z,16.02
2019-05-11T01:11:49.466Z,13.05
2019-05-11T01:14:18.892Z,11.45
2019-05-11T01:16:48.319Z,15.23
2019-05-11T01:19:17.735Z,13.13
2019-05-11T01:21:47.157Z,14.05
2019-05-11T01:24:17.115Z,15.23
2019-05-11T01:26:46.514Z,10.90
2019-05-11T01:29:15.987Z,14.43
2019-05-11T01:31:45.386Z,9.63
2019-05-11T01:34:14.843Z,10.90
2019-05-11T01:36:44.269Z,12.58
2019-05-11T01:39:14.036Z,20.43
2019-05-11T01:41:43.487Z,11.38
2019-05-11T01:44:12.882Z,7.95
2019-05-11T01:46:42.318Z,12.10
2019-05-11T01:49:11.727Z,11.03
2019-05-11T01:51:41.556Z,11.75
2019-05-11T01:54:10.965Z,11.10
2019-05-11T01:56:40.660Z,13.28
2019-05-11T01:59:10.097Z,14.00
2019-05-11T02:01:39.501Z,13.80
2019-05-11T02:04:08.950Z,12.93
2019-05-11T02:06:38.545Z,12.23
2019-05-11T02:09:08.050Z,11.33
2019-05-11T02:11:40.479Z,8.43
2019-05-11T02:14:09.917Z,9.93
2019-05-11T02:16:39.696Z,11.08
2019-05-11T02:19:09.129Z,12.07
2019-05-11T02:21:38.541Z,10.08
2019-05-11T02:24:07.973Z,10.80
2019-05-11T02:26:37.399Z,10.95
2019-05-11T02:29:07.141Z,9.60
2019-05-11T02:31:36.604Z,13.08
2019-05-11T02:34:06.014Z,8.50
2019-05-11T02:36:35.421Z,9.20
2019-05-11T02:39:06.827Z,16.97
2019-05-11T02:41:37.577Z,8.30
2019-05-11T02:44:07.154Z,7.87
2019-05-11T02:46:36.598Z,11.48
2019-05-11T02:49:06.007Z,12.13
2019-05-11T02:51:35.699Z,11.40
2019-05-11T02:54:05.103Z,10.68
2019-05-11T02:56:34.559Z,11.28
2019-05-11T02:59:03.961Z,6.95
2019-05-11T03:01:33.381Z,9.05
2019-05-11T03:04:02.798Z,7.90
2019-05-11T03:06:32.224Z,7.90
2019-05-11T03:09:01.660Z,6.90
2019-05-11T03:11:31.070Z,10.75
2019-05-11T03:14:00.497Z,10.05
2019-05-11T03:16:29.926Z,8.40
2019-05-11T03:18:59.370Z,10.28
2019-05-11T03:21:28.847Z,9.80
2019-05-11T03:23:58.262Z,6.70
2019-05-11T03:26:28.009Z,7.72
2019-05-11T03:28:57.409Z,10.63
2019-05-11T03:31:26.838Z,8.78
2019-05-11T03:33:56.258Z,8.68
2019-05-11T03:36:25.645Z,9.08
2019-05-11T03:38:55.045Z,9.83
2019-05-11T03:41:24.491Z,9.40
2019-05-11T03:43:54.273Z,9.35
2019-05-11T03:46:23.723Z,21.10
2019-05-11T03:48:53.138Z,20.62
2019-05-11T03:51:22.538Z,14.63
2019-05-11T03:53:52.097Z,14.07
2019-05-11T03:56:21.474Z,10.80
2019-05-11T03:58:50.946Z,19.10
2019-05-11T04:01:20.360Z,9.10
2019-05-11T04:03:49.789Z,8.48
2019-05-11T04:06:19.206Z,12.15
2019-05-11T04:08:48.614Z,10.80
2019-05-11T04:11:18.084Z,11.28
2019-05-11T04:13:47.554Z,13.08
2019-05-11T04:16:16.981Z,12.45
2019-05-11T04:18:46.400Z,16.87
2019-05-11T04:21:15.802Z,17.02
2019-05-11T04:23:45.585Z,17.02
2019-05-11T04:26:14.977Z,16.15
2019-05-11T04:28:44.393Z,17.67
2019-05-11T04:31:13.823Z,21.77
2019-05-11T04:33:43.269Z,17.77
2019-05-11T04:36:12.715Z,22.30
2019-05-11T04:38:42.125Z,18.05
2019-05-11T04:41:11.559Z,19.57
2019-05-11T04:43:41.003Z,14.90
2019-05-11T04:46:10.417Z,17.12
2019-05-11T04:48:39.837Z,17.73
2019-05-11T04:51:09.282Z,14.07
2019-05-11T04:53:38.719Z,19.37
2019-05-11T04:56:08.152Z,13.78
2019-05-11T04:58:37.560Z,14.38
2019-05-11T05:01:07.275Z,15.43
2019-05-11T05:03:40.887Z,11.80
2019-05-11T05:06:22.197Z,16.05
2019-05-11T05:08:38.942Z,15.58
2019-05-11T05:11:08.356Z,15.93
2019-05-11T05:13:37.792Z,18.05
2019-05-11T05:16:07.239Z,12.75
2019-05-11T05:18:37.031Z,17.07
2019-05-11T05:21:06.448Z,15.72
2019-05-11T05:23:36.187Z,16.95
2019-05-11T05:26:05.667Z,14.20
2019-05-11T05:28:35.102Z,20.35
2019-05-11T05:31:04.534Z,13.75
2019-05-11T05:33:33.940Z,9.23
2019-05-11T05:36:03.388Z,6.95
2019-05-11T05:38:32.821Z,7.12
2019-05-11T05:41:02.630Z,6.70
2019-05-11T05:43:32.341Z,6.50
2019-05-11T05:46:01.799Z,8.50
2019-05-11T05:48:31.237Z,11.83
2019-05-11T05:51:00.696Z,14.78
2019-05-11T05:53:30.131Z,7.60
2019-05-11T05:55:59.561Z,12.93
2019-05-11T05:58:29.005Z,5.47
2019-05-11T06:00:58.416Z,4.90
2019-05-11T06:03:27.824Z,6.90
2019-05-11T06:05:57.229Z,6.20
2019-05-11T06:08:26.690Z,7.07
2019-05-11T06:10:56.137Z,6.03
2019-05-11T06:13:43.533Z,15.60
2019-05-11T06:15:56.613Z,7.57
2019-05-11T06:18:26.045Z,6.63
2019-05-11T06:20:55.469Z,8.08
2019-05-11T06:23:25.267Z,6.53
2019-05-11T06:25:54.770Z,4.77
2019-05-11T06:28:24.234Z,6.42
2019-05-11T06:30:53.631Z,7.58
2019-05-11T06:33:23.388Z,5.28
2019-05-11T06:35:52.801Z,5.28
2019-05-11T06:38:22.234Z,8.10
2019-05-11T06:40:51.689Z,5.37
2019-05-11T06:43:21.100Z,5.65
2019-05-11T06:45:51.446Z,5.97
2019-05-11T06:48:20.910Z,11.85
2019-05-11T06:50:50.330Z,9.38
2019-05-11T06:53:19.727Z,8.68
2019-05-11T06:55:49.224Z,7.70
2019-05-11T06:58:18.674Z,9.70
2019-05-11T07:00:48.125Z,20.10
2019-05-11T07:03:17.555Z,8.85
2019-05-11T07:05:47.033Z,8.95
2019-05-11T07:08:16.446Z,8.05
2019-05-11T07:10:46.187Z,12.75
2019-05-11T07:13:15.946Z,12.35
2019-05-11T07:15:45.429Z,12.63
2019-05-11T07:18:14.839Z,11.68
2019-05-11T07:20:50.629Z,14.33
2019-05-11T07:23:15.425Z,16.80
2019-05-11T07:25:44.905Z,15.25
2019-05-11T07:28:14.305Z,15.30
2019-05-11T07:30:43.723Z,11.90
2019-05-11T07:33:13.176Z,16.05
2019-05-11T07:35:42.585Z,11.70
2019-05-11T07:38:12.285Z,14.15
2019-05-11T07:40:41.706Z,17.85
2019-05-11T07:43:11.112Z,14.07
2019-05-11T07:45:40.565Z,17.92
2019-05-11T07:48:10.076Z,12.20
2019-05-11T07:50:39.522Z,14.05
2019-05-11T07:53:08.958Z,13.08
2019-05-11T07:55:38.670Z,12.60
2019-05-11T07:58:08.215Z,19.67
2019-05-11T08:00:39.950Z,17.00
2019-05-11T08:03:09.124Z,16.32
2019-05-11T08:05:38.724Z,19.45
2019-05-11T08:08:09.321Z,13.95
2019-05-11T08:10:39.287Z,10.75
2019-05-11T08:13:09.263Z,15.25
2019-05-11T08:15:38.842Z,12.13
2019-05-11T08:18:08.665Z,11.57
2019-05-11T08:20:38.631Z,9.48
2019-05-11T08:23:09.093Z,11.15
2019-05-11T08:25:38.626Z,16.82
2019-05-11T08:28:11.900Z,11.65
2019-05-11T08:30:39.158Z,13.28
2019-05-11T08:33:08.759Z,14.50
2019-05-11T08:35:39.056Z,12.98
2019-05-11T08:38:09.017Z,13.13
2019-05-11T08:40:38.521Z,15.53
2019-05-11T08:43:08.751Z,14.85
2019-05-11T08:45:39.374Z,9.93
2019-05-11T08:48:10.258Z,12.40
2019-05-11T08:50:39.712Z,13.05
2019-05-11T08:53:09.150Z,10.78
2019-05-11T08:55:38.669Z,12.88
2019-05-11T08:58:08.137Z,14.45
2019-05-11T09:00:38.955Z,12.53
2019-05-11T09:03:08.720Z,12.30
2019-05-11T09:05:38.536Z,11.63
2019-05-11T09:08:08.315Z,14.28
2019-05-11T09:10:39.737Z,13.72
2019-05-11T09:13:09.331Z,14.05
2019-05-11T09:15:40.754Z,17.65
2019-05-11T09:18:09.859Z,18.67
2019-05-11T09:20:39.328Z,19.73
2019-05-11T09:23:09.150Z,17.75
2019-05-11T09:25:38.647Z,16.60
2019-05-11T09:28:08.540Z,18.40
2019-05-11T09:30:38.195Z,19.02
2019-05-11T09:33:08.554Z,17.12
2019-05-11T09:35:47.571Z,15.90
2019-05-11T09:38:09.341Z,18.75
2019-05-11T09:40:38.845Z,17.40
2019-05-11T09:43:08.643Z,15.53
2019-05-11T09:45:48.268Z,17.75
2019-05-11T09:48:09.648Z,14.95
2019-05-11T09:50:39.079Z,15.75
2019-05-11T09:53:08.672Z,17.00
2019-05-11T09:55:38.866Z,13.65
2019-05-11T09:58:08.648Z,21.62
2019-05-11T10:00:38.869Z,17.50
2019-05-11T10:03:08.543Z,21.42
2019-05-11T10:05:38.397Z,20.35
2019-05-11T10:08:08.027Z,21.60
2019-05-11T10:10:38.294Z,22.15
2019-05-11T10:13:08.228Z,24.50
2019-05-11T10:15:38.582Z,22.37
2019-05-11T10:18:08.397Z,22.80
2019-05-11T10:20:39.211Z,22.48
2019-05-11T10:23:09.109Z,26.10
2019-05-11T10:25:41.852Z,27.40
2019-05-11T10:28:11.298Z,30.77
2019-05-11T10:30:40.711Z,25.60
2019-05-11T10:33:10.181Z,31.57
2019-05-11T10:35:39.591Z,27.35
2019-05-11T10:38:09.368Z,24.75
2019-05-11T10:40:38.941Z,24.82
2019-05-11T10:43:08.357Z,22.00
2019-05-11T10:45:38.154Z,20.68
2019-05-11T10:48:08.852Z,18.30
2019-05-11T10:50:38.348Z,19.52
2019-05-11T10:53:08.058Z,19.60
2019-05-11T10:55:38.683Z,18.45
2019-05-11T10:58:08.752Z,21.90
2019-05-11T11:00:38.998Z,22.55
2019-05-11T11:03:08.716Z,20.25
2019-05-11T11:05:38.602Z,21.57
2019-05-11T11:08:08.454Z,23.95
2019-05-11T11:10:38.387Z,23.80
2019-05-11T11:13:08.430Z,19.73
2019-05-11T11:15:39.963Z,19.87
2019-05-11T11:18:09.413Z,20.77
2019-05-11T11:20:38.860Z,19.73
2019-05-11T11:23:08.817Z,20.60
2019-05-11T11:25:38.425Z,25.57
2019-05-11T11:28:08.526Z,26.77
2019-05-11T11:30:38.545Z,30.23
2019-05-11T11:33:08.339Z,26.42
2019-05-11T11:35:38.498Z,31.30
2019-05-11T11:38:08.653Z,31.75
2019-05-11T11:40:38.811Z,34.58
2019-05-11T11:43:08.751Z,36.08
2019-05-11T11:45:38.336Z,39.95
2019-05-11T11:48:08.642Z,59.55
2019-05-11T11:50:38.383Z,59.03
2019-05-11T11:53:08.361Z,41.65
2019-05-11T11:55:39.032Z,38.17
2019-05-11T11:58:08.669Z,30.20
2019-05-11T12:00:39.284Z,25.88
2019-05-11T12:03:08.846Z,18.10
2019-05-11T12:05:38.881Z,22.67
2019-05-11T12:08:13.098Z,20.90
2019-05-11T12:10:42.551Z,23.18
2019-05-11T12:13:12.009Z,30.35
2019-05-11T12:15:42.022Z,26.02
2019-05-11T12:18:11.466Z,21.65
2019-05-11T12:20:40.898Z,26.15
2019-05-11T12:23:10.333Z,27.65
2019-05-11T12:25:40.630Z,26.52
2019-05-11T12:28:10.233Z,25.52
2019-05-11T12:30:40.204Z,20.55
2019-05-11T12:33:09.714Z,34.00
2019-05-11T12:35:39.171Z,20.25
2019-05-11T12:38:09.049Z,23.22
2019-05-11T12:40:39.013Z,18.70
2019-05-11T12:43:08.753Z,21.20
2019-05-11T12:45:38.717Z,20.05
2019-05-11T12:48:09.279Z,20.57
2019-05-11T12:50:38.723Z,18.87
2019-05-11T12:53:08.229Z,17.45
2019-05-11T12:55:38.162Z,17.00
2019-05-11T12:58:08.598Z,19.32
2019-05-11T13:00:39.098Z,19.23
2019-05-11T13:03:08.946Z,17.20
2019-05-11T13:05:40.001Z,20.72
2019-05-11T13:08:09.892Z,21.68
2019-05-11T13:10:39.613Z,23.77
2019-05-11T13:13:09.227Z,25.40
2019-05-11T13:15:38.955Z,22.60
2019-05-11T13:18:08.843Z,23.38
2019-05-11T13:20:38.569Z,24.52
2019-05-11T13:23:08.175Z,26.60
2019-05-11T13:25:38.775Z,23.42
2019-05-11T13:28:08.783Z,23.32
2019-05-11T13:30:38.412Z,24.10
2019-05-11T13:33:08.722Z,21.12
2019-05-11T13:35:38.257Z,24.32
2019-05-11T13:38:08.669Z,24.32
2019-05-11T13:40:38.760Z,25.17
2019-05-11T13:43:08.659Z,21.68
2019-05-11T13:45:38.721Z,23.50
2019-05-11T13:48:08.597Z,24.60
2019-05-11T13:50:38.685Z,22.45
2019-05-11T13:53:08.655Z,22.77
2019-05-11T13:55:38.769Z,23.22
2019-05-11T13:58:08.856Z,27.93
2019-05-11T14:00:38.307Z,28.60
2019-05-11T14:03:08.977Z,24.00
2019-05-11T14:05:38.687Z,29.27
2019-05-11T14:08:08.749Z,27.32
2019-05-11T14:10:38.539Z,28.30
2019-05-11T14:13:08.753Z,24.92
2019-05-11T14:15:39.470Z,32.08
2019-05-11T14:18:11.883Z,32.42
2019-05-11T14:20:40.490Z,27.80
2019-05-11T14:23:10.026Z,27.17
2019-05-11T14:25:39.545Z,31.87
2019-05-11T14:28:09.121Z,29.77
2019-05-11T14:30:38.864Z,31.25
2019-05-11T14:33:08.860Z,29.00
2019-05-11T14:35:38.793Z,44.40
2019-05-11T14:38:08.253Z,33.48
2019-05-11T14:40:38.738Z,27.27
2019-05-11T14:43:08.538Z,32.60
2019-05-11T14:45:38.377Z,29.95
2019-05-11T14:48:22.472Z,28.10
2019-05-11T14:50:38.869Z,32.45
2019-05-11T14:53:08.716Z,35.85
2019-05-11T14:55:38.363Z,34.38
2019-05-11T14:58:08.455Z,33.48
2019-05-11T15:00:39.198Z,64.90
2019-05-11T15:03:09.277Z,35.08
2019-05-11T15:05:41.420Z,35.35
2019-05-11T15:08:10.169Z,60.03
2019-05-11T15:10:39.683Z,38.75
2019-05-11T15:13:09.093Z,35.75
2019-05-11T15:15:39.419Z,35.90
2019-05-11T15:18:10.161Z,28.25
2019-05-11T15:20:39.965Z,36.53
2019-05-11T15:23:10.187Z,29.52
2019-05-11T15:25:39.683Z,32.00
2019-05-11T15:28:09.196Z,29.42
2019-05-11T15:30:38.652Z,31.23
2019-05-11T15:33:08.782Z,28.25
2019-05-11T15:35:38.228Z,27.32
2019-05-11T15:38:08.874Z,24.35
2019-05-11T15:40:39.020Z,27.60
2019-05-11T15:43:08.920Z,26.05
2019-05-11T15:45:39.352Z,23.27
2019-05-11T15:48:09.197Z,27.75
2019-05-11T15:50:40.179Z,26.77
2019-05-11T15:53:12.680Z,35.35
2019-05-11T15:55:42.578Z,30.23
2019-05-11T15:58:12.140Z,32.48
2019-05-11T16:00:42.373Z,31.60
2019-05-11T16:03:11.830Z,28.32
2019-05-11T16:05:41.452Z,24.72
2019-05-11T16:08:11.007Z,23.75
2019-05-11T16:10:40.432Z,25.43
2019-05-11T16:13:09.834Z,24.35
2019-05-11T16:15:39.326Z,25.02
2019-05-11T16:18:09.196Z,22.13
2019-05-11T16:20:38.698Z,22.02
2019-05-11T16:23:08.209Z,23.83
2019-05-11T16:25:38.296Z,19.45
2019-05-11T16:28:10.357Z,17.90
2019-05-11T16:30:40.132Z,21.25
2019-05-11T16:33:09.605Z,20.57
2019-05-11T16:35:40.034Z,24.37
2019-05-11T16:38:10.809Z,19.87
2019-05-11T16:40:40.473Z,22.70
2019-05-11T16:43:09.941Z,21.05
2019-05-11T16:45:39.390Z,23.90
2019-05-11T16:48:08.841Z,23.30
2019-05-11T16:50:38.486Z,23.10
2019-05-11T16:53:08.395Z,24.40
2019-05-11T16:55:37.864Z,25.23
2019-05-11T16:58:08.164Z,28.15
2019-05-11T17:00:39.338Z,23.35
2019-05-11T17:03:09.698Z,18.95
2019-05-11T17:05:39.137Z,18.80
2019-05-11T17:08:08.568Z,23.35
2019-05-11T17:10:38.009Z,21.62
2019-05-11T17:13:08.633Z,17.32
2019-05-11T17:15:38.458Z,18.70
2019-05-11T17:18:08.182Z,16.82
2019-05-11T17:20:37.684Z,22.10
2019-05-11T17:23:07.120Z,17.65
2019-05-11T17:25:37.960Z,20.08
2019-05-11T17:28:10.078Z,20.05
2019-05-11T17:30:39.094Z,19.65
2019-05-11T17:33:08.825Z,26.10
2019-05-11T17:35:38.392Z,21.30
2019-05-11T17:38:08.143Z,26.15
2019-05-11T17:40:37.943Z,21.12
2019-05-11T17:43:09.097Z,21.77
2019-05-11T17:45:38.660Z,23.47
2019-05-11T17:48:08.534Z,25.65
2019-05-11T17:50:38.404Z,24.45
2019-05-11T17:53:08.212Z,24.57
2019-05-11T17:55:38.380Z,24.72
2019-05-11T17:58:08.709Z,27.62
2019-05-11T18:00:39.230Z,25.20
2019-05-11T18:03:11.186Z,24.95
2019-05-11T18:05:40.534Z,20.43
2019-05-11T18:08:09.978Z,21.65
2019-05-11T18:10:39.749Z,22.15
2019-05-11T18:13:09.250Z,21.52
2019-05-11T18:15:38.687Z,23.95
2019-05-11T18:18:09.371Z,28.87
2019-05-11T18:20:39.181Z,24.23
2019-05-11T18:23:09.331Z,28.00
2019-05-11T18:25:39.132Z,29.77
2019-05-11T18:28:09.348Z,26.37
2019-05-11T18:30:41.971Z,28.25
2019-05-11T18:33:11.834Z,33.45
2019-05-11T18:35:41.632Z,35.38
2019-05-11T18:38:11.067Z,37.08
2019-05-11T18:40:40.766Z,29.32
2019-05-11T18:43:11.022Z,30.65
2019-05-11T18:45:40.592Z,33.80
2019-05-11T18:48:10.073Z,35.52
2019-05-11T18:50:39.557Z,35.05
2019-05-11T18:53:09.412Z,37.60
2019-05-11T18:55:39.040Z,37.23
2019-05-11T18:58:08.816Z,40.75
2019-05-11T19:00:38.326Z,40.17
2019-05-11T19:03:08.853Z,39.00
2019-05-11T19:05:39.397Z,41.90
2019-05-11T19:08:08.829Z,36.75
2019-05-11T19:10:38.544Z,43.05
2019-05-11T19:13:08.025Z,42.83
2019-05-11T19:15:38.793Z,38.95
2019-05-11T19:18:08.486Z,48.98
2019-05-11T19:20:45.963Z,42.40
2019-05-11T19:23:10.345Z,39.70
2019-05-11T19:25:40.129Z,39.88
2019-05-11T19:28:09.605Z,41.90
2019-05-11T19:30:39.542Z,46.85
2019-05-11T19:33:11.290Z,44.05
2019-05-11T19:35:40.134Z,48.05
2019-05-11T19:38:10.115Z,47.35
2019-05-11T19:40:39.562Z,56.70
2019-05-11T19:43:09.037Z,58.15
2019-05-11T19:45:41.950Z,57.40
2019-05-11T19:48:10.152Z,61.68
2019-05-11T19:50:40.791Z,64.58
2019-05-11T19:53:10.503Z,63.60
2019-05-11T19:55:40.186Z,59.42
2019-05-11T19:58:09.614Z,69.47
2019-05-11T20:00:39.428Z,59.13
2019-05-11T20:03:09.602Z,55.10
2019-05-11T20:05:40.234Z,58.85
2019-05-11T20:08:09.716Z,58.23
2019-05-11T20:10:39.486Z,59.08
2019-05-11T20:13:08.927Z,55.98
2019-05-11T20:15:38.461Z,55.33
2019-05-11T20:18:08.160Z,60.75
2019-05-11T20:20:37.827Z,48.30
2019-05-11T20:23:07.775Z,49.50
2019-05-11T20:25:37.970Z,46.05
2019-05-11T20:28:07.681Z,45.33
2019-05-11T20:30:37.150Z,40.75
2019-05-11T20:33:08.694Z,42.13
2019-05-11T20:35:38.353Z,36.40
2019-05-11T20:38:08.747Z,39.48
2019-05-11T20:40:38.340Z,39.98
2019-05-11T20:43:08.068Z,44.15
2019-05-11T20:45:37.887Z,35.60
2019-05-11T20:48:07.957Z,33.78
2019-05-11T20:50:37.966Z,36.50
2019-05-11T20:53:08.548Z,40.92
2019-05-11T20:55:38.190Z,39.53
2019-05-11T20:58:08.577Z,35.85
2019-05-11T21:00:38.406Z,38.42
2019-05-11T21:03:08.090Z,34.48
2019-05-11T21:05:37.656Z,36.98
2019-05-11T21:08:08.501Z,34.45
2019-05-11T21:10:38.789Z,28.45
2019-05-11T21:13:08.678Z,30.17
2019-05-11T21:15:38.568Z,32.13
2019-05-11T21:18:08.567Z,30.20
2019-05-11T21:20:38.224Z,28.87
2019-05-11T21:23:08.362Z,29.57
2019-05-11T21:25:37.936Z,30.00
2019-05-11T21:28:08.537Z,28.38
2019-05-11T21:30:39.978Z,30.52
2019-05-11T21:33:09.276Z,23.90
2019-05-11T21:35:38.782Z,28.02
2019-05-11T21:38:08.296Z,24.72
2019-05-11T21:40:38.200Z,27.55
2019-05-11T21:43:08.700Z,25.85
2019-05-11T21:45:40.742Z,28.15
2019-05-11T21:48:09.506Z,27.37
2019-05-11T21:50:38.962Z,28.55
2019-05-11T21:53:10.593Z,28.25
2019-05-11T21:55:39.656Z,28.47
2019-05-11T21:58:09.178Z,25.35
2019-05-11T22:00:39.531Z,23.95
2019-05-11T22:03:10.380Z,28.15
2019-05-11T22:05:40.274Z,26.10
2019-05-11T22:08:09.721Z,26.33
2019-05-11T22:10:39.166Z,27.93
2019-05-11T22:13:08.571Z,29.52
2019-05-11T22:15:38.562Z,25.08
2019-05-11T22:18:08.248Z,26.97
2019-05-11T22:20:40.732Z,23.60
2019-05-11T22:23:08.699Z,21.93
2019-05-11T22:25:38.368Z,22.40
2019-05-11T22:28:08.410Z,27.48
2019-05-11T22:30:39.371Z,22.45
2019-05-11T22:33:09.007Z,19.42
2019-05-11T22:35:38.825Z,21.90
2019-05-11T22:38:08.632Z,22.48
2019-05-11T22:40:38.488Z,28.47
2019-05-11T22:43:09.344Z,22.58
2019-05-11T22:45:39.081Z,27.65
2019-05-11T22:48:08.488Z,23.65
2019-05-11T22:50:38.289Z,22.82
2019-05-11T22:53:08.693Z,20.90
2019-05-11T22:55:38.979Z,20.02
2019-05-11T22:58:08.684Z,19.35
2019-05-11T23:00:42.947Z,20.95
2019-05-11T23:03:12.562Z,22.60
2019-05-11T23:05:42.403Z,19.35
2019-05-11T23:08:11.828Z,19.45
2019-05-11T23:10:41.221Z,16.45
2019-05-11T23:13:11.406Z,17.23
2019-05-11T23:15:41.103Z,16.10
2019-05-11T23:18:10.514Z,16.17
2019-05-11T23:20:39.962Z,16.45
2019-05-11T23:23:09.472Z,16.23
2019-05-11T23:25:38.928Z,18.48
2019-05-11T23:28:08.353Z,15.28
2019-05-11T23:30:38.885Z,20.10
2019-05-11T23:33:09.041Z,11.57
2019-05-11T23:35:38.592Z,14.33
2019-05-11T23:38:08.092Z,13.85
2019-05-11T23:40:38.098Z,13.05
2019-05-11T23:43:08.581Z,11.85
2019-05-11T23:45:39.179Z,10.63
2019-05-11T23:48:08.587Z,12.50
2019-05-11T23:50:38.730Z,12.10
2019-05-11T23:53:10.126Z,8.23
2019-05-11T23:55:39.468Z,10.70
2019-05-11T23:58:08.870Z,7.15
